createdAt,value
2019-02-18T00:02:25.593Z,17.50
2019-02-18T00:04:55.681Z,17.50
2019-02-18T00:07:25.746Z,17.40
2019-02-18T00:09:55.867Z,17.40
2019-02-18T00:12:26.077Z,17.40
2019-02-18T00:14:56.143Z,17.50
2019-02-18T00:17:26.296Z,17.50
2019-02-18T00:19:56.381Z,17.50
2019-02-18T00:22:26.524Z,17.40
2019-02-18T00:24:56.555Z,17.30
2019-02-18T00:27:26.676Z,17.30
2019-02-18T00:29:56.843Z,17.30
2019-02-18T00:32:26.876Z,17.30
2019-02-18T00:34:56.979Z,17.30
2019-02-18T00:37:27.091Z,17.20
2019-02-18T00:39:57.228Z,17.10
2019-02-18T00:42:27.285Z,17.10
2019-02-18T00:44:57.519Z,17.10
2019-02-18T00:47:27.724Z,17.10
2019-02-18T00:49:57.878Z,17.10
2019-02-18T00:52:28.003Z,17.10
2019-02-18T00:54:58.187Z,17.00
2019-02-18T00:57:28.272Z,17.00
2019-02-18T00:59:58.402Z,17.00
2019-02-18T01:02:28.519Z,17.00
2019-02-18T01:04:58.723Z,16.90
2019-02-18T01:07:34.784Z,16.90
2019-02-18T01:10:01.813Z,16.90
2019-02-18T01:12:31.946Z,16.90
2019-02-18T01:15:02.076Z,16.90
2019-02-18T01:17:32.467Z,16.90
2019-02-18T01:20:02.495Z,16.90
2019-02-18T01:22:32.687Z,16.90
2019-02-18T01:25:02.803Z,16.80
2019-02-18T01:27:32.972Z,16.80
2019-02-18T01:30:03.279Z,16.90
2019-02-18T01:32:34.348Z,16.90
2019-02-18T01:35:04.611Z,16.90
2019-02-18T01:37:44.895Z,16.90
2019-02-18T01:40:08.401Z,16.80
2019-02-18T01:42:38.421Z,16.80
2019-02-18T01:45:09.645Z,16.80
2019-02-18T01:47:39.811Z,16.70
2019-02-18T01:50:12.270Z,16.70
2019-02-18T01:52:42.816Z,16.70
2019-02-18T01:55:13.717Z,16.70
2019-02-18T01:57:43.999Z,16.60
2019-02-18T02:00:15.703Z,16.60
2019-02-18T02:02:45.775Z,16.60
2019-02-18T02:05:16.451Z,16.50
2019-02-18T02:07:55.786Z,16.50
2019-02-18T02:10:18.116Z,16.50
2019-02-18T02:12:49.819Z,16.50
2019-02-18T02:15:25.851Z,16.40
2019-02-18T02:17:55.966Z,16.50
2019-02-18T02:20:26.107Z,16.40
2019-02-18T02:22:57.191Z,16.40
2019-02-18T02:25:27.176Z,16.40
2019-02-18T02:27:57.312Z,16.30
2019-02-18T02:30:27.605Z,16.40
2019-02-18T02:32:57.779Z,16.40
2019-02-18T02:35:27.916Z,16.40
2019-02-18T02:38:07.328Z,16.30
2019-02-18T02:40:29.832Z,16.30
2019-02-18T02:42:59.982Z,16.30
2019-02-18T02:45:30.141Z,16.30
2019-02-18T02:48:00.276Z,16.30
2019-02-18T02:50:30.400Z,16.30
2019-02-18T02:53:00.536Z,16.30
2019-02-18T02:55:30.542Z,16.20
2019-02-18T02:58:00.601Z,16.30
2019-02-18T03:00:30.724Z,16.30
2019-02-18T03:03:00.855Z,16.20
2019-02-18T03:05:31.092Z,16.30
2019-02-18T03:08:01.220Z,16.40
2019-02-18T03:10:31.356Z,16.50
2019-02-18T03:13:01.859Z,16.60
2019-02-18T03:15:31.972Z,16.60
2019-02-18T03:18:03.093Z,16.60
2019-02-18T03:20:33.006Z,16.50
2019-02-18T03:23:03.040Z,16.60
2019-02-18T03:25:33.523Z,16.60
2019-02-18T03:28:10.328Z,16.60
2019-02-18T03:31:10.402Z,16.60
2019-02-18T03:33:47.313Z,16.50
2019-02-18T03:36:17.429Z,16.50
2019-02-18T03:38:47.604Z,16.80
2019-02-18T03:41:17.711Z,16.90
2019-02-18T03:43:47.632Z,16.80
2019-02-18T03:46:17.784Z,16.70
2019-02-18T03:48:47.802Z,16.30
2019-02-18T03:51:17.933Z,16.20
2019-02-18T03:53:48.248Z,16.10
2019-02-18T03:56:18.441Z,16.00
2019-02-18T03:58:48.568Z,16.10
2019-02-18T04:01:18.698Z,16.10
2019-02-18T04:03:48.802Z,16.00
2019-02-18T04:06:19.131Z,16.00
2019-02-18T04:08:49.328Z,16.00
2019-02-18T04:11:19.300Z,16.00
2019-02-18T04:13:49.459Z,15.90
2019-02-18T04:16:19.553Z,15.90
2019-02-18T04:18:49.817Z,15.90
2019-02-18T04:21:20.034Z,15.90
2019-02-18T04:23:50.267Z,15.80
2019-02-18T04:26:20.324Z,15.80
2019-02-18T04:28:50.435Z,15.80
2019-02-18T04:31:20.313Z,15.80
2019-02-18T04:33:50.486Z,15.80
2019-02-18T04:36:20.493Z,15.70
2019-02-18T04:38:54.113Z,15.70
2019-02-18T04:41:22.572Z,15.70
2019-02-18T04:43:52.498Z,15.60
2019-02-18T04:46:22.612Z,15.60
2019-02-18T04:48:52.759Z,15.60
2019-02-18T04:51:22.924Z,15.60
2019-02-18T04:53:53.080Z,15.60
2019-02-18T04:56:24.091Z,15.50
2019-02-18T04:58:54.195Z,15.50
2019-02-18T05:01:24.359Z,15.40
2019-02-18T05:03:54.648Z,15.50
2019-02-18T05:06:25.640Z,15.40
2019-02-18T05:09:05.080Z,15.40
2019-02-18T05:11:27.705Z,15.40
2019-02-18T05:13:57.914Z,15.30
2019-02-18T05:16:28.034Z,15.30
2019-02-18T05:18:58.243Z,15.30
2019-02-18T05:21:28.315Z,15.30
2019-02-18T05:23:58.596Z,15.30
2019-02-18T05:26:28.685Z,15.20
2019-02-18T05:28:58.815Z,15.20
2019-02-18T05:31:28.841Z,15.20
2019-02-18T05:33:58.885Z,15.20
2019-02-18T05:36:28.859Z,15.20
2019-02-18T05:39:00.125Z,15.10
2019-02-18T05:41:31.209Z,15.10
2019-02-18T05:44:01.512Z,15.20
2019-02-18T05:46:31.628Z,15.20
2019-02-18T05:49:01.658Z,15.20
2019-02-18T05:51:31.650Z,15.20
2019-02-18T05:54:01.851Z,15.20
2019-02-18T05:56:31.880Z,15.20
2019-02-18T05:59:01.896Z,15.10
2019-02-18T06:01:31.957Z,15.10
2019-02-18T06:04:02.214Z,15.00
2019-02-18T06:06:32.278Z,15.00
2019-02-18T06:09:02.367Z,15.00
2019-02-18T06:11:33.507Z,15.00
2019-02-18T06:14:03.753Z,15.00
2019-02-18T06:16:33.752Z,15.00
2019-02-18T06:19:04.013Z,15.00
2019-02-18T06:21:34.004Z,15.10
2019-02-18T06:24:04.120Z,15.20
2019-02-18T06:26:34.213Z,15.20
2019-02-18T06:29:04.428Z,15.20
2019-02-18T06:31:34.564Z,15.20
2019-02-18T06:34:04.685Z,15.20
2019-02-18T06:36:34.864Z,15.20
2019-02-18T06:39:06.254Z,15.50
2019-02-18T06:41:36.412Z,15.70
2019-02-18T06:44:06.682Z,15.80
2019-02-18T06:46:42.837Z,15.80
2019-02-18T06:49:18.107Z,15.80
2019-02-18T06:51:48.075Z,15.80
2019-02-18T06:54:18.128Z,15.80
2019-02-18T06:57:07.296Z,15.90
2019-02-18T06:59:41.036Z,15.80
2019-02-18T07:02:19.067Z,15.80
2019-02-18T07:04:55.992Z,15.90
2019-02-18T07:07:37.435Z,15.90
2019-02-18T07:10:25.044Z,15.90
2019-02-18T07:12:55.230Z,15.90
2019-02-18T07:15:25.395Z,15.90
2019-02-18T07:17:55.648Z,15.90
2019-02-18T07:20:25.928Z,15.90
2019-02-18T07:22:56.005Z,15.90
2019-02-18T07:25:26.160Z,15.90
2019-02-18T07:27:56.220Z,15.90
2019-02-18T07:30:26.223Z,16.00
2019-02-18T07:32:56.356Z,16.00
2019-02-18T07:35:26.454Z,16.00
2019-02-18T07:37:56.495Z,16.00
2019-02-18T07:40:26.764Z,16.00
2019-02-18T07:42:56.901Z,16.00
2019-02-18T07:45:27.077Z,16.10
2019-02-18T07:47:57.344Z,16.10
2019-02-18T07:50:27.439Z,16.00
2019-02-18T07:52:57.485Z,16.00
2019-02-18T07:55:27.629Z,16.10
2019-02-18T07:57:57.896Z,16.20
2019-02-18T08:00:28.015Z,16.20
2019-02-18T08:02:58.189Z,16.30
2019-02-18T08:05:28.472Z,16.20
2019-02-18T08:07:58.588Z,16.30
2019-02-18T08:10:28.718Z,16.50
2019-02-18T08:12:58.831Z,16.50
2019-02-18T08:15:28.920Z,16.60
2019-02-18T08:17:59.070Z,16.90
2019-02-18T08:20:29.273Z,17.30
2019-02-18T08:22:59.383Z,17.80
2019-02-18T08:25:29.542Z,18.10
2019-02-18T08:27:59.573Z,18.40
2019-02-18T08:30:29.621Z,18.60
2019-02-18T08:32:59.707Z,18.80
2019-02-18T08:35:29.898Z,18.90
2019-02-18T08:38:00.040Z,19.00
2019-02-18T08:40:29.993Z,19.20
2019-02-18T08:43:00.118Z,19.30
2019-02-18T08:45:30.278Z,19.50
2019-02-18T08:48:00.513Z,19.60
2019-02-18T08:50:30.620Z,19.70
2019-02-18T08:53:00.704Z,19.80
2019-02-18T08:55:31.009Z,19.80
2019-02-18T08:58:01.173Z,19.90
2019-02-18T09:00:31.336Z,19.90
2019-02-18T09:03:01.544Z,19.90
2019-02-18T09:05:31.763Z,19.90
2019-02-18T09:08:01.835Z,19.90
2019-02-18T09:10:33.822Z,20.00
2019-02-18T09:13:03.572Z,20.00
2019-02-18T09:15:33.643Z,19.90
2019-02-18T09:18:03.871Z,20.00
2019-02-18T09:20:34.028Z,20.00
2019-02-18T09:23:37.969Z,20.00
2019-02-18T09:26:08.240Z,19.90
2019-02-18T09:28:38.313Z,19.90
2019-02-18T09:31:08.475Z,19.90
2019-02-18T09:33:38.615Z,20.00
2019-02-18T09:36:08.648Z,20.00
2019-02-18T09:38:38.871Z,20.10
2019-02-18T09:41:08.952Z,20.10
2019-02-18T09:43:39.094Z,20.00
2019-02-18T09:46:09.347Z,20.00
2019-02-18T09:48:39.630Z,20.10
2019-02-18T09:51:09.816Z,20.10
2019-02-18T09:53:40.025Z,20.10
2019-02-18T09:56:09.966Z,20.20
2019-02-18T09:58:40.001Z,20.30
2019-02-18T10:01:10.092Z,20.30
2019-02-18T10:03:40.156Z,20.30
2019-02-18T10:06:10.245Z,20.30
2019-02-18T10:08:40.464Z,20.30
2019-02-18T10:11:10.723Z,20.30
2019-02-18T10:13:41.043Z,20.30
2019-02-18T10:16:11.120Z,20.20
2019-02-18T10:18:41.331Z,20.00
2019-02-18T10:21:11.538Z,19.90
2019-02-18T10:23:41.556Z,20.20
2019-02-18T10:26:11.731Z,20.20
2019-02-18T10:28:41.952Z,20.20
2019-02-18T10:31:12.112Z,20.20
2019-02-18T10:33:42.319Z,20.30
2019-02-18T10:36:12.532Z,20.30
2019-02-18T10:38:42.709Z,20.30
2019-02-18T10:41:12.688Z,20.30
2019-02-18T10:43:42.817Z,20.30
2019-02-18T10:46:12.941Z,20.30
2019-02-18T10:48:42.906Z,20.40
2019-02-18T10:51:13.023Z,20.40
2019-02-18T10:53:44.239Z,20.30
2019-02-18T10:56:14.360Z,20.30
2019-02-18T10:58:44.447Z,20.40
2019-02-18T11:01:14.679Z,20.40
2019-02-18T11:03:44.812Z,20.40
2019-02-18T11:06:14.992Z,20.40
2019-02-18T11:08:45.237Z,20.40
2019-02-18T11:11:17.243Z,20.40
2019-02-18T11:13:47.210Z,20.40
2019-02-18T11:16:17.256Z,20.40
2019-02-18T11:18:47.352Z,20.40
2019-02-18T11:21:18.138Z,20.40
2019-02-18T11:23:48.217Z,20.60
2019-02-18T11:26:18.353Z,20.50
2019-02-18T11:32:35.594Z,20.80
2019-02-18T11:35:06.509Z,20.80
2019-02-18T11:37:36.692Z,20.60
2019-02-18T11:40:08.016Z,20.60
2019-02-18T11:42:38.279Z,20.50
2019-02-18T11:45:10.565Z,20.40
2019-02-18T11:47:40.677Z,20.40
2019-02-18T11:50:11.558Z,20.40
2019-02-18T11:52:41.917Z,20.40
2019-02-18T11:55:12.012Z,20.30
2019-02-18T11:57:42.501Z,20.10
2019-02-18T12:00:13.056Z,20.10
2019-02-18T12:02:43.331Z,20.20
2019-02-18T12:05:13.692Z,20.20
2019-02-18T12:07:43.816Z,20.10
2019-02-18T12:10:13.939Z,20.10
2019-02-18T12:12:44.327Z,20.10
2019-02-18T12:15:14.502Z,20.10
2019-02-18T12:17:44.668Z,20.10
2019-02-18T12:20:14.936Z,20.10
2019-02-18T12:22:45.161Z,19.80
2019-02-18T12:25:15.412Z,19.80
2019-02-18T12:27:45.916Z,20.00
2019-02-18T12:30:16.044Z,20.10
2019-02-18T12:32:46.275Z,20.00
2019-02-18T12:35:16.417Z,20.00
2019-02-18T12:37:54.910Z,20.00
2019-02-18T12:40:18.435Z,19.90
2019-02-18T12:42:48.827Z,19.90
2019-02-18T12:45:18.964Z,19.90
2019-02-18T12:47:49.265Z,19.90
2019-02-18T12:50:19.423Z,19.90
2019-02-18T12:52:49.745Z,19.80
2019-02-18T12:55:20.472Z,19.80
2019-02-18T12:57:50.780Z,19.80
2019-02-18T13:00:20.958Z,19.80
2019-02-18T13:02:51.064Z,19.70
2019-02-18T13:05:22.295Z,19.80
2019-02-18T13:07:52.556Z,19.80
2019-02-18T13:10:22.976Z,19.70
2019-02-18T13:12:53.915Z,19.60
2019-02-18T13:25:19.960Z,19.70
2019-02-18T13:27:57.651Z,19.70
2019-02-18T13:30:27.701Z,19.60
2019-02-18T13:32:57.855Z,19.60
2019-02-18T13:35:28.004Z,19.70
2019-02-18T13:37:58.227Z,19.70
2019-02-18T13:40:28.632Z,19.60
2019-02-18T13:42:58.876Z,19.70
2019-02-18T13:45:29.203Z,19.70
2019-02-18T13:47:59.247Z,19.70
2019-02-18T13:50:29.551Z,19.70
2019-02-18T13:52:59.948Z,19.40
2019-02-18T13:55:33.356Z,19.30
2019-02-18T13:58:04.256Z,19.20
2019-02-18T14:00:34.636Z,19.10
2019-02-18T14:03:05.141Z,19.20
2019-02-18T14:05:35.238Z,19.20
2019-02-18T14:08:05.596Z,19.30
2019-02-18T14:10:39.313Z,19.40
2019-02-18T14:13:09.326Z,19.60
2019-02-18T14:15:39.578Z,19.70
2019-02-18T14:18:09.919Z,19.70
2019-02-18T14:20:40.680Z,19.70
2019-02-18T14:23:11.099Z,19.70
2019-02-18T14:25:41.361Z,19.70
2019-02-18T14:28:11.517Z,19.70
2019-02-18T14:30:41.781Z,19.70
2019-02-18T14:33:12.427Z,19.70
2019-02-18T14:35:42.708Z,19.60
2019-02-18T14:38:12.958Z,19.70
2019-02-18T14:40:43.224Z,19.70
2019-02-18T14:43:13.498Z,19.70
2019-02-18T14:45:44.948Z,19.70
2019-02-18T14:48:15.401Z,19.70
2019-02-18T14:50:45.661Z,19.70
2019-02-18T14:53:15.856Z,19.70
2019-02-18T14:55:46.177Z,19.70
2019-02-18T14:58:16.425Z,19.60
2019-02-18T15:00:46.628Z,19.60
2019-02-18T15:03:16.968Z,19.60
2019-02-18T15:05:47.177Z,19.60
2019-02-18T15:08:17.829Z,19.50
2019-02-18T15:10:47.992Z,19.50
2019-02-18T15:13:18.460Z,19.60
2019-02-18T15:15:49.033Z,19.70
2019-02-18T15:18:19.461Z,19.70
2019-02-18T15:20:49.792Z,19.70
2019-02-18T15:23:21.072Z,19.70
2019-02-18T15:25:54.760Z,19.70
2019-02-18T15:28:25.447Z,19.70
2019-02-18T15:30:55.686Z,19.70
2019-02-18T15:33:26.224Z,19.70
2019-02-18T15:35:56.680Z,19.70
2019-02-18T15:38:26.933Z,19.70
2019-02-18T15:40:57.085Z,19.70
2019-02-18T15:43:28.985Z,19.70
2019-02-18T15:45:59.091Z,19.70
2019-02-18T15:48:30.287Z,19.60
2019-02-18T15:51:00.547Z,19.60
2019-02-18T15:53:31.715Z,19.60
2019-02-18T15:56:01.983Z,19.60
2019-02-18T15:58:32.736Z,19.60
2019-02-18T16:01:02.894Z,19.60
2019-02-18T16:03:33.243Z,19.50
2019-02-18T16:06:03.436Z,19.50
2019-02-18T16:08:33.896Z,19.50
2019-02-18T16:11:04.218Z,19.50
2019-02-18T16:13:36.848Z,19.50
2019-02-18T16:16:07.156Z,19.50
2019-02-18T16:18:40.429Z,19.50
2019-02-18T16:21:10.972Z,19.50
2019-02-18T16:23:41.627Z,19.40
2019-02-18T16:26:12.019Z,19.40
2019-02-18T16:28:42.351Z,19.40
2019-02-18T16:31:12.644Z,19.40
2019-02-18T16:33:42.817Z,19.30
2019-02-18T16:36:13.053Z,19.40
2019-02-18T16:38:43.971Z,19.50
2019-02-18T16:41:14.087Z,19.50
2019-02-18T16:43:45.340Z,19.50
2019-02-18T16:46:15.699Z,19.50
2019-02-18T16:48:46.233Z,19.60
2019-02-18T16:51:16.415Z,19.60
2019-02-18T16:53:46.788Z,19.60
2019-02-18T16:56:17.039Z,19.60
2019-02-18T16:58:47.336Z,19.60
2019-02-18T17:01:19.059Z,19.60
2019-02-18T17:03:49.117Z,19.60
2019-02-18T17:06:19.261Z,19.60
2019-02-18T17:08:49.305Z,19.60
2019-02-18T17:11:19.467Z,19.60
2019-02-18T17:13:49.681Z,19.70
2019-02-18T17:16:20.316Z,19.70
2019-02-18T17:18:50.736Z,19.60
2019-02-18T17:21:21.020Z,19.70
2019-02-18T17:23:51.312Z,19.70
2019-02-18T17:26:21.501Z,19.70
2019-02-18T17:28:51.703Z,19.70
2019-02-18T17:31:22.016Z,19.70
2019-02-18T17:33:52.426Z,19.70
2019-02-18T17:36:22.624Z,19.60
2019-02-18T17:38:53.099Z,19.60
2019-02-18T17:41:23.704Z,19.70
2019-02-18T17:43:54.596Z,19.60
2019-02-18T17:46:24.802Z,19.60
2019-02-18T17:48:54.866Z,19.60
2019-02-18T17:51:24.991Z,19.60
2019-02-18T17:53:56.015Z,19.60
2019-02-18T17:56:26.432Z,19.60
2019-02-18T17:58:56.752Z,19.60
2019-02-18T18:01:26.910Z,19.60
2019-02-18T18:03:57.462Z,19.60
2019-02-18T18:06:27.768Z,19.60
2019-02-18T18:08:58.368Z,19.60
2019-02-18T18:11:29.091Z,19.60
2019-02-18T18:13:59.351Z,19.60
2019-02-18T18:16:29.744Z,19.60
2019-02-18T18:19:09.159Z,19.60
2019-02-18T18:21:34.304Z,19.60
2019-02-18T18:24:05.019Z,19.50
2019-02-18T18:26:35.268Z,19.50
2019-02-18T18:29:05.558Z,19.50
2019-02-18T18:31:36.044Z,19.50
2019-02-18T18:34:06.515Z,19.50
2019-02-18T18:36:36.776Z,19.50
2019-02-18T18:39:07.116Z,19.50
2019-02-18T18:41:37.131Z,19.50
2019-02-18T18:44:07.241Z,19.50
2019-02-18T18:46:37.487Z,19.50
2019-02-18T18:49:07.856Z,19.50
2019-02-18T18:51:38.390Z,19.50
2019-02-18T18:54:09.619Z,19.50
2019-02-18T18:56:39.934Z,19.50
2019-02-18T18:59:10.284Z,19.40
2019-02-18T19:01:40.284Z,19.50
2019-02-18T19:04:10.871Z,19.50
2019-02-18T19:06:41.340Z,19.40
2019-02-18T19:09:11.509Z,19.50
2019-02-18T19:11:41.695Z,19.50
2019-02-18T19:14:11.884Z,19.50
2019-02-18T19:16:42.000Z,19.50
2019-02-18T19:19:12.103Z,19.40
2019-02-18T19:21:42.400Z,19.40
2019-02-18T19:24:12.745Z,19.40
2019-02-18T19:26:42.985Z,19.40
2019-02-18T19:29:13.291Z,19.40
2019-02-18T19:31:43.928Z,19.30
2019-02-18T19:34:14.117Z,19.30
2019-02-18T19:36:44.285Z,19.30
2019-02-18T19:39:15.383Z,19.30
2019-02-18T19:41:45.539Z,19.30
2019-02-18T19:44:16.164Z,19.20
2019-02-18T19:46:46.424Z,19.20
2019-02-18T19:49:16.687Z,19.20
2019-02-18T19:51:46.731Z,19.20
2019-02-18T19:54:16.973Z,19.20
2019-02-18T19:56:47.116Z,19.20
2019-02-18T19:59:17.408Z,19.20
2019-02-18T20:01:47.609Z,19.20
2019-02-18T20:04:17.866Z,19.10
2019-02-18T20:06:48.067Z,19.10
2019-02-18T20:09:18.523Z,19.10
2019-02-18T20:11:48.976Z,19.10
2019-02-18T20:14:19.212Z,19.10
2019-02-18T20:16:50.698Z,19.20
2019-02-18T20:19:21.036Z,19.20
2019-02-18T20:21:51.291Z,19.20
2019-02-18T20:24:21.695Z,19.20
2019-02-18T20:26:51.892Z,19.10
2019-02-18T20:29:22.383Z,19.10
2019-02-18T20:31:52.567Z,19.10
2019-02-18T20:34:22.763Z,19.10
2019-02-18T20:36:53.132Z,19.10
2019-02-18T20:39:23.178Z,19.10
2019-02-18T20:41:53.278Z,19.10
2019-02-18T20:44:23.260Z,19.10
2019-02-18T20:46:53.276Z,19.10
2019-02-18T20:49:23.455Z,19.10
2019-02-18T20:51:53.955Z,19.20
2019-02-18T20:54:24.128Z,19.20
2019-02-18T20:56:54.325Z,19.30
2019-02-18T20:59:24.583Z,19.30
2019-02-18T21:01:54.763Z,19.30
2019-02-18T21:04:24.936Z,19.30
2019-02-18T21:06:55.145Z,19.30
2019-02-18T21:09:25.276Z,19.30
2019-02-18T21:11:55.484Z,19.30
2019-02-18T21:14:25.680Z,19.30
2019-02-18T21:16:55.756Z,19.30
2019-02-18T21:19:26.251Z,19.30
2019-02-18T21:21:56.475Z,19.30
2019-02-18T21:24:26.649Z,19.30
2019-02-18T21:26:56.835Z,19.30
2019-02-18T21:29:27.060Z,19.30
2019-02-18T21:31:57.625Z,19.30
2019-02-18T21:34:27.804Z,19.30
2019-02-18T21:36:58.011Z,19.30
2019-02-18T21:39:28.187Z,19.30
2019-02-18T21:41:58.373Z,19.30
2019-02-18T21:44:28.604Z,19.30
2019-02-18T21:46:58.982Z,19.20
2019-02-18T21:49:29.143Z,19.20
2019-02-18T21:51:59.204Z,19.20
2019-02-18T21:54:29.323Z,19.20
2019-02-18T21:56:59.540Z,19.10
2019-02-18T21:59:30.084Z,19.10
2019-02-18T22:02:00.247Z,19.20
2019-02-18T22:04:30.482Z,19.20
2019-02-18T22:07:00.592Z,19.10
2019-02-18T22:09:30.963Z,19.10
2019-02-18T22:12:01.136Z,19.10
2019-02-18T22:14:33.354Z,19.00
2019-02-18T22:17:03.496Z,19.00
2019-02-18T22:19:33.675Z,19.00
2019-02-18T22:22:04.304Z,19.00
2019-02-18T22:24:34.592Z,19.00
2019-02-18T22:27:04.779Z,19.00
2019-02-18T22:29:35.136Z,19.00
2019-02-18T22:32:05.103Z,18.90
2019-02-18T22:34:35.200Z,18.90
2019-02-18T22:37:05.404Z,18.90
2019-02-18T22:39:35.777Z,18.90
2019-02-18T22:42:05.899Z,18.90
2019-02-18T22:44:41.989Z,18.90
2019-02-18T22:47:08.963Z,18.90
2019-02-18T22:49:39.180Z,18.90
2019-02-18T22:52:09.623Z,18.90
2019-02-18T22:54:39.840Z,18.90
2019-02-18T22:57:10.348Z,18.90
2019-02-18T22:59:40.436Z,18.90
2019-02-18T23:02:11.051Z,18.90
2019-02-18T23:04:41.239Z,18.90
2019-02-18T23:07:13.872Z,18.80
2019-02-18T23:09:44.108Z,18.80
2019-02-18T23:12:14.332Z,18.80
2019-02-18T23:14:50.315Z,18.80
2019-02-18T23:17:18.321Z,18.80
2019-02-18T23:19:48.319Z,18.80
2019-02-18T23:22:18.503Z,18.80
2019-02-18T23:24:49.159Z,18.80
2019-02-18T23:27:19.379Z,18.80
2019-02-18T23:29:49.643Z,18.80
2019-02-18T23:32:19.883Z,18.80
2019-02-18T23:34:50.095Z,18.80
2019-02-18T23:37:20.208Z,18.80
2019-02-18T23:39:50.312Z,18.80
2019-02-18T23:42:20.353Z,18.80
2019-02-18T23:44:58.842Z,18.80
2019-02-18T23:47:22.358Z,18.80
2019-02-18T23:49:52.457Z,18.70
2019-02-18T23:52:22.588Z,18.80
2019-02-18T23:54:52.664Z,18.80
2019-02-18T23:57:22.740Z,18.80
2019-02-18T23:59:53.006Z,18.80
